createdAt,value
2022-11-23T00:01:13.704Z,99199.59
2022-11-23T00:03:41.352Z,99196.63
2022-11-23T00:06:11.054Z,99196.44
2022-11-23T00:08:38.930Z,99195.44
2022-11-23T00:11:07.121Z,99195.44
2022-11-23T00:13:37.109Z,99194.63
2022-11-23T00:16:10.599Z,99190.69
2022-11-23T00:18:39.641Z,99182.94
2022-11-23T00:21:13.157Z,99182.25
2022-11-23T00:23:42.938Z,99187.06
2022-11-23T00:26:11.204Z,99184.25
2022-11-23T00:28:42.009Z,99194.13
2022-11-23T00:31:13.975Z,99194.44
2022-11-23T00:33:42.131Z,99197.75
2022-11-23T00:36:12.635Z,99195.13
2022-11-23T00:38:40.730Z,99195.13
2022-11-23T00:41:10.300Z,99200.09
2022-11-23T00:43:38.104Z,99201.72
2022-11-23T00:46:07.794Z,99192.66
2022-11-23T00:48:37.546Z,99186.91
2022-11-23T00:51:07.294Z,99190.03
2022-11-23T00:53:35.486Z,99203.06
2022-11-23T00:56:03.279Z,99196.81
2022-11-23T00:58:31.412Z,99203.38
2022-11-23T01:01:04.169Z,99206.38
2022-11-23T01:03:32.214Z,99205.69
2022-11-23T01:06:08.861Z,99201.72
2022-11-23T01:08:36.809Z,99214.44
2022-11-23T01:11:07.147Z,99210.66
2022-11-23T01:13:34.921Z,99217.25
2022-11-23T01:16:02.898Z,99217.59
2022-11-23T01:18:30.737Z,99219.56
2022-11-23T01:20:58.726Z,99214.78
2022-11-23T01:23:29.647Z,99219.06
2022-11-23T01:25:57.415Z,99222.38
2022-11-23T01:28:25.776Z,99221.91
2022-11-23T01:30:53.433Z,99220.59
2022-11-23T01:33:21.145Z,99228.34
2022-11-23T01:35:48.835Z,99219.09
2022-11-23T01:38:18.342Z,99221.72
2022-11-23T01:40:47.695Z,99222.56
2022-11-23T01:43:16.979Z,99214.47
2022-11-23T01:45:46.359Z,99216.28
2022-11-23T01:48:18.524Z,99214.00
2022-11-23T01:50:49.860Z,99225.03
2022-11-23T01:53:17.972Z,99228.19
2022-11-23T01:55:48.430Z,99227.84
2022-11-23T01:58:19.722Z,99224.22
2022-11-23T02:00:47.752Z,99225.88
2022-11-23T02:03:15.688Z,99225.72
2022-11-23T02:05:48.029Z,99228.50
2022-11-23T02:08:17.961Z,99227.84
2022-11-23T02:10:48.403Z,99229.66
2022-11-23T02:13:21.054Z,99226.53
2022-11-23T02:15:48.739Z,99230.47
2022-11-23T02:18:20.407Z,99232.63
2022-11-23T02:20:49.164Z,99231.81
2022-11-23T02:23:29.271Z,99229.34
2022-11-23T02:26:03.332Z,99231.47
2022-11-23T02:28:37.478Z,99226.53
2022-11-23T02:31:05.184Z,99224.72
2022-11-23T02:33:32.808Z,99225.75
2022-11-23T02:36:02.180Z,99227.41
2022-11-23T02:38:33.225Z,99226.84
2022-11-23T02:41:02.217Z,99217.28
2022-11-23T02:43:29.882Z,99218.94
2022-11-23T02:46:00.045Z,99220.28
2022-11-23T02:48:27.767Z,99221.09
2022-11-23T02:50:55.439Z,99215.63
2022-11-23T02:53:23.211Z,99210.03
2022-11-23T02:55:50.902Z,99211.69
2022-11-23T02:58:19.935Z,99210.34
2022-11-23T03:00:47.799Z,99216.13
2022-11-23T03:03:15.659Z,99215.16
2022-11-23T03:05:43.306Z,99218.78
2022-11-23T03:08:11.043Z,99211.34
2022-11-23T03:10:38.701Z,99216.47
2022-11-23T03:13:06.393Z,99211.56
2022-11-23T03:15:35.431Z,99214.34
2022-11-23T03:18:03.065Z,99218.16
2022-11-23T03:20:30.726Z,99219.13
2022-11-23T03:22:58.557Z,99222.28
2022-11-23T03:25:26.264Z,99220.47
2022-11-23T03:27:53.919Z,99217.31
2022-11-23T03:30:21.791Z,99222.44
2022-11-23T03:32:50.779Z,99222.59
2022-11-23T03:35:18.639Z,99224.75
2022-11-23T03:37:46.333Z,99223.94
2022-11-23T03:40:14.564Z,99225.75
2022-11-23T03:42:42.652Z,99220.78
2022-11-23T03:45:11.157Z,99221.59
2022-11-23T03:47:39.027Z,99218.81
2022-11-23T03:50:09.299Z,99220.63
2022-11-23T03:52:37.025Z,99222.94
2022-11-23T03:55:05.511Z,99228.22
2022-11-23T03:57:33.170Z,99229.69
2022-11-23T04:00:00.901Z,99229.53
2022-11-23T04:02:28.523Z,99222.78
2022-11-23T04:04:56.232Z,99220.63
2022-11-23T04:07:25.321Z,99218.66
2022-11-23T04:09:53.009Z,99220.47
2022-11-23T04:12:20.725Z,99222.28
2022-11-23T04:14:48.334Z,99220.47
2022-11-23T04:17:16.001Z,99224.44
2022-11-23T04:19:43.687Z,99226.72
2022-11-23T04:22:11.571Z,99221.44
2022-11-23T04:24:40.586Z,99220.31
2022-11-23T04:27:08.273Z,99220.63
2022-11-23T04:29:36.323Z,99218.66
2022-11-23T04:32:06.854Z,99220.97
2022-11-23T04:34:34.506Z,99225.28
2022-11-23T04:37:02.157Z,99222.28
2022-11-23T04:39:30.027Z,99218.97
2022-11-23T04:41:59.384Z,99221.28
2022-11-23T04:44:27.106Z,99218.97
2022-11-23T04:46:54.810Z,99225.59
2022-11-23T04:49:22.515Z,99217.97
2022-11-23T04:51:50.191Z,99216.31
2022-11-23T04:54:17.827Z,99221.59
2022-11-23T04:56:45.550Z,99218.97
2022-11-23T04:59:20.138Z,99213.06
2022-11-23T05:01:47.804Z,99218.97
2022-11-23T05:04:17.891Z,99223.25
2022-11-23T05:06:45.866Z,99218.34
2022-11-23T05:09:13.874Z,99217.16
2022-11-23T05:11:44.802Z,99213.38
2022-11-23T05:14:12.572Z,99222.13
2022-11-23T05:16:41.612Z,99221.59
2022-11-23T05:19:12.351Z,99221.59
2022-11-23T05:21:39.981Z,99218.50
2022-11-23T05:24:10.234Z,99220.00
2022-11-23T05:26:37.940Z,99216.69
2022-11-23T05:29:05.560Z,99227.41
2022-11-23T05:31:33.669Z,99225.44
2022-11-23T05:34:04.732Z,99226.25
2022-11-23T05:36:32.648Z,99224.59
2022-11-23T05:39:00.321Z,99223.63
2022-11-23T05:41:28.026Z,99228.22
2022-11-23T05:43:55.730Z,99218.97
2022-11-23T05:46:23.374Z,99226.56
2022-11-23T05:48:51.139Z,99223.09
2022-11-23T05:51:20.302Z,99227.56
2022-11-23T05:53:48.312Z,99231.88
2022-11-23T05:56:15.999Z,99234.66
2022-11-23T05:58:43.633Z,99235.84
2022-11-23T06:01:11.349Z,99232.84
2022-11-23T06:03:39.115Z,99230.03
2022-11-23T06:06:07.514Z,99227.91
2022-11-23T06:08:36.571Z,99233.50
2022-11-23T06:11:04.468Z,99230.22
2022-11-23T06:13:32.100Z,99234.19
2022-11-23T06:15:59.853Z,99237.47
2022-11-23T06:18:27.590Z,99234.34
2022-11-23T06:20:55.215Z,99240.44
2022-11-23T06:23:22.845Z,99232.53
2022-11-23T06:25:51.842Z,99237.16
2022-11-23T06:28:19.583Z,99232.69
2022-11-23T06:30:47.366Z,99229.53
2022-11-23T06:33:15.090Z,99238.81
2022-11-23T06:35:42.779Z,99228.38
2022-11-23T06:38:10.453Z,99230.22
2022-11-23T06:40:38.441Z,99224.75
2022-11-23T06:43:08.204Z,99232.84
2022-11-23T06:45:36.277Z,99232.53
2022-11-23T06:48:04.019Z,99232.19
2022-11-23T06:50:31.640Z,99236.47
2022-11-23T06:52:59.503Z,99244.09
2022-11-23T06:55:27.375Z,99246.88
2022-11-23T06:57:55.211Z,99250.19
2022-11-23T07:00:24.523Z,99246.72
2022-11-23T07:02:53.330Z,99253.00
2022-11-23T07:05:21.613Z,99258.44
2022-11-23T07:07:49.841Z,99258.94
2022-11-23T07:10:18.363Z,99268.19
2022-11-23T07:12:46.563Z,99263.72
2022-11-23T07:15:15.034Z,99266.56
2022-11-23T07:17:45.197Z,99267.19
2022-11-23T07:20:14.327Z,99263.91
2022-11-23T07:22:42.100Z,99271.50
2022-11-23T07:25:11.469Z,99265.72
2022-11-23T07:27:39.087Z,99265.53
2022-11-23T07:30:08.100Z,99262.56
2022-11-23T07:32:35.801Z,99269.16
2022-11-23T07:35:05.352Z,99276.78
2022-11-23T07:37:33.085Z,99275.94
2022-11-23T07:40:01.310Z,99274.44
2022-11-23T07:42:36.877Z,99282.72
2022-11-23T07:45:10.464Z,99274.78
2022-11-23T07:47:38.216Z,99284.38
2022-11-23T07:50:08.499Z,99282.38
2022-11-23T07:52:37.553Z,99287.84
2022-11-23T07:55:06.369Z,99280.09
2022-11-23T07:57:34.074Z,99290.34
2022-11-23T08:00:02.125Z,99286.69
2022-11-23T08:02:29.890Z,99288.19
2022-11-23T08:04:57.573Z,99292.63
2022-11-23T08:07:27.800Z,99285.22
2022-11-23T08:09:55.499Z,99287.03
2022-11-23T08:12:23.187Z,99291.66
2022-11-23T08:14:50.829Z,99289.66
2022-11-23T08:17:18.522Z,99290.00
2022-11-23T08:19:46.224Z,99290.00
2022-11-23T08:22:15.856Z,99285.38
2022-11-23T08:24:45.248Z,99286.19
2022-11-23T08:27:12.917Z,99284.88
2022-11-23T08:29:40.851Z,99281.91
2022-11-23T08:32:08.480Z,99282.56
2022-11-23T08:34:36.143Z,99290.19
2022-11-23T08:37:03.890Z,99285.38
2022-11-23T08:39:31.650Z,99291.31
2022-11-23T08:42:00.800Z,99292.16
2022-11-23T08:44:28.809Z,99288.69
2022-11-23T08:46:56.521Z,99290.50
2022-11-23T08:49:24.255Z,99293.63
2022-11-23T08:51:51.966Z,99284.31
2022-11-23T08:54:19.626Z,99281.22
2022-11-23T08:56:47.478Z,99275.16
2022-11-23T08:59:17.187Z,99277.59
2022-11-23T09:01:45.256Z,99260.66
2022-11-23T09:04:17.723Z,99274.09
2022-11-23T09:06:48.142Z,99271.63
2022-11-23T09:09:15.818Z,99268.16
2022-11-23T09:11:43.472Z,99262.59
2022-11-23T09:14:12.660Z,99264.06
2022-11-23T09:16:41.706Z,99271.72
2022-11-23T09:19:14.214Z,99269.25
2022-11-23T09:21:43.019Z,99257.03
2022-11-23T09:24:11.568Z,99257.44
2022-11-23T09:26:39.562Z,99253.78
2022-11-23T09:29:08.019Z,99253.28
2022-11-23T09:31:36.296Z,99254.94
2022-11-23T09:34:05.965Z,99255.22
2022-11-23T09:36:33.889Z,99262.09
2022-11-23T09:39:01.518Z,99271.00
2022-11-23T09:41:52.316Z,99273.63
2022-11-23T09:44:25.559Z,99273.19
2022-11-23T09:47:04.403Z,99271.03
2022-11-23T09:49:42.777Z,99281.22
2022-11-23T09:52:17.812Z,99280.59
2022-11-23T09:54:48.394Z,99276.31
2022-11-23T09:57:20.716Z,99282.31
2022-11-23T09:59:53.667Z,99286.13
2022-11-23T10:02:23.730Z,99282.63
2022-11-23T10:04:54.592Z,99276.06
2022-11-23T10:07:40.806Z,99277.56
2022-11-23T10:10:20.121Z,99270.94
2022-11-23T10:12:55.358Z,99259.56
2022-11-23T10:15:27.980Z,99257.94
2022-11-23T10:18:06.101Z,99247.81
2022-11-23T10:20:45.539Z,99248.78
2022-11-23T10:23:19.366Z,99246.53
2022-11-23T10:25:49.926Z,99249.66
2022-11-23T10:28:20.400Z,99250.34
2022-11-23T10:30:53.289Z,99241.41
2022-11-23T10:33:27.583Z,99246.84
2022-11-23T10:35:56.644Z,99240.41
2022-11-23T10:38:28.442Z,99241.56
2022-11-23T10:41:04.045Z,99237.72
2022-11-23T10:43:38.042Z,99239.31
2022-11-23T10:46:27.900Z,99235.31
2022-11-23T10:48:56.342Z,99237.97
2022-11-23T10:51:33.087Z,99231.81
2022-11-23T10:54:05.414Z,99232.22
2022-11-23T10:56:34.751Z,99227.97
2022-11-23T10:59:02.525Z,99220.94
2022-11-23T11:01:30.632Z,99216.25
2022-11-23T11:04:04.063Z,99217.25
2022-11-23T11:06:36.121Z,99218.81
2022-11-23T11:09:08.472Z,99219.03
2022-11-23T11:11:46.718Z,99209.72
2022-11-23T11:14:17.671Z,99206.00
2022-11-23T11:16:49.996Z,99201.69
2022-11-23T11:19:28.337Z,99192.91
2022-11-23T11:21:58.372Z,99195.16
2022-11-23T11:24:33.311Z,99197.84
2022-11-23T11:27:04.687Z,99191.38
2022-11-23T11:29:39.160Z,99184.47
2022-11-23T11:32:12.697Z,99187.69
2022-11-23T11:34:46.007Z,99182.44
2022-11-23T11:37:19.993Z,99179.63
2022-11-23T11:39:52.654Z,99170.50
2022-11-23T11:42:31.509Z,99169.16
2022-11-23T11:45:02.299Z,99172.22
2022-11-23T11:47:34.756Z,99169.38
2022-11-23T11:50:12.054Z,99164.00
2022-11-23T11:52:43.520Z,99153.50
2022-11-23T11:55:16.333Z,99159.25
2022-11-23T11:57:48.890Z,99152.66
2022-11-23T12:00:19.164Z,99153.25
2022-11-23T12:02:59.713Z,99160.78
2022-11-23T12:05:37.041Z,99158.72
2022-11-23T12:08:12.537Z,99155.78
2022-11-23T12:10:48.514Z,99147.91
2022-11-23T12:13:18.557Z,99154.78
2022-11-23T12:15:50.571Z,99160.00
2022-11-23T12:18:45.135Z,99145.22
2022-11-23T12:21:27.832Z,99139.38
2022-11-23T12:24:06.473Z,99136.63
2022-11-23T12:26:44.999Z,99140.88
2022-11-23T12:29:35.823Z,99145.75
2022-11-23T12:32:15.118Z,99139.91
2022-11-23T12:35:00.125Z,99138.84
2022-11-23T12:37:44.347Z,99137.78
2022-11-23T12:40:45.015Z,99140.69
2022-11-23T12:43:15.290Z,99135.84
2022-11-23T12:45:57.118Z,99135.84
2022-11-23T12:48:38.829Z,99135.59
2022-11-23T12:51:17.476Z,99134.47
2022-11-23T12:53:53.900Z,99124.88
2022-11-23T12:56:38.149Z,99120.09
2022-11-23T12:59:09.265Z,99116.84
2022-11-23T13:01:41.501Z,99130.31
2022-11-23T13:04:42.681Z,99124.22
2022-11-23T13:07:47.603Z,99119.56
2022-11-23T13:10:25.834Z,99115.63
2022-11-23T13:13:14.098Z,99116.00
2022-11-23T13:16:01.559Z,99110.25
2022-11-23T13:18:44.387Z,99106.03
2022-11-23T13:21:23.960Z,99102.53
2022-11-23T13:23:51.839Z,99097.16
2022-11-23T13:26:21.641Z,99093.06
2022-11-23T13:28:52.760Z,99093.06
2022-11-23T13:31:26.441Z,99087.28
2022-11-23T13:33:56.412Z,99091.41
2022-11-23T13:37:11.008Z,99074.66
2022-11-23T13:40:06.347Z,99085.28
2022-11-23T13:42:37.100Z,99081.97
2022-11-23T13:45:30.744Z,99071.59
2022-11-23T13:48:07.442Z,99073.81
2022-11-23T13:50:35.612Z,99066.41
2022-11-23T13:53:04.281Z,99063.53
2022-11-23T13:55:35.937Z,99058.22
2022-11-23T13:58:37.247Z,99056.38
2022-11-23T14:01:06.626Z,99052.91
2022-11-23T14:03:55.888Z,99040.16
2022-11-23T14:06:37.491Z,99042.03
2022-11-23T14:09:14.844Z,99038.97
2022-11-23T14:11:54.024Z,99028.50
2022-11-23T14:14:27.229Z,99028.84
2022-11-23T14:17:20.505Z,99026.16
2022-11-23T14:20:09.286Z,99014.34
2022-11-23T14:22:48.593Z,99016.34
2022-11-23T14:25:39.664Z,99011.63
2022-11-23T14:28:22.870Z,99011.34
2022-11-23T14:31:04.673Z,99011.81
2022-11-23T14:33:40.635Z,99004.50
2022-11-23T14:36:21.118Z,99008.84
2022-11-23T14:39:24.174Z,99015.59
2022-11-23T14:41:56.260Z,99011.66
2022-11-23T14:44:28.068Z,99013.47
2022-11-23T14:47:02.738Z,99012.06
2022-11-23T14:49:32.355Z,99018.50
2022-11-23T14:52:01.858Z,99005.81
2022-11-23T14:54:31.193Z,99002.16
2022-11-23T14:57:01.471Z,99002.16
2022-11-23T14:59:32.221Z,99014.38
2022-11-23T15:02:02.101Z,99007.34
2022-11-23T15:04:35.085Z,99011.38
2022-11-23T15:07:08.231Z,99016.44
2022-11-23T15:09:46.109Z,99019.47
2022-11-23T15:12:23.683Z,99019.47
2022-11-23T15:14:51.918Z,99027.00
2022-11-23T15:17:21.713Z,99012.09
2022-11-23T15:19:59.380Z,99025.06
2022-11-23T15:22:28.481Z,99020.59
2022-11-23T15:25:06.402Z,99025.28
2022-11-23T15:27:34.134Z,99026.00
2022-11-23T15:30:02.261Z,99031.66
2022-11-23T15:32:33.766Z,99034.84
2022-11-23T15:35:07.250Z,99029.31
2022-11-23T15:37:42.118Z,99033.25
2022-11-23T15:40:14.806Z,99034.50
2022-11-23T15:42:43.823Z,99032.41
2022-11-23T15:45:36.573Z,99036.16
2022-11-23T15:48:07.414Z,99036.50
2022-11-23T15:50:45.606Z,99037.16
2022-11-23T15:53:13.953Z,99038.97
2022-11-23T15:55:43.480Z,99037.16
2022-11-23T15:58:17.509Z,99041.09
2022-11-23T16:00:50.846Z,99039.44
2022-11-23T16:03:29.909Z,99048.59
2022-11-23T16:06:17.567Z,99048.22
2022-11-23T16:08:45.567Z,99055.78
2022-11-23T16:11:34.917Z,99062.31
2022-11-23T16:14:17.524Z,99060.47
2022-11-23T16:16:46.740Z,99056.38
2022-11-23T16:19:24.527Z,99064.31
2022-11-23T16:22:00.708Z,99065.16
2022-11-23T16:24:31.841Z,99072.94
2022-11-23T16:26:59.996Z,99079.25
2022-11-23T16:29:32.055Z,99080.50
2022-11-23T16:32:02.717Z,99093.75
2022-11-23T16:34:30.694Z,99101.38
2022-11-23T16:37:03.847Z,99108.56
2022-11-23T16:39:31.568Z,99116.53
2022-11-23T16:41:59.329Z,99122.66
2022-11-23T16:44:41.554Z,99132.91
2022-11-23T16:47:21.218Z,99140.16
2022-11-23T16:49:49.377Z,99135.50
2022-11-23T16:52:18.630Z,99141.53
2022-11-23T16:54:46.339Z,99148.84
2022-11-23T16:57:24.802Z,99148.41
2022-11-23T16:59:52.527Z,99158.38
2022-11-23T17:02:20.484Z,99155.81
2022-11-23T17:04:48.238Z,99166.03
2022-11-23T17:07:16.841Z,99164.94
2022-11-23T17:09:45.945Z,99169.69
2022-11-23T17:12:17.334Z,99170.69
2022-11-23T17:14:47.921Z,99180.63
2022-11-23T17:17:20.463Z,99189.97
2022-11-23T17:19:49.614Z,99195.38
2022-11-23T17:22:18.427Z,99202.78
2022-11-23T17:24:48.160Z,99206.41
2022-11-23T17:27:18.185Z,99213.00
2022-11-23T17:29:47.205Z,99205.22
2022-11-23T17:32:15.949Z,99216.34
2022-11-23T17:34:43.668Z,99211.28
2022-11-23T17:37:17.955Z,99221.09
2022-11-23T17:39:47.605Z,99219.69
2022-11-23T17:42:15.902Z,99216.09
2022-11-23T17:44:43.832Z,99219.09
2022-11-23T17:47:18.790Z,99218.16
2022-11-23T17:49:46.557Z,99226.41
2022-11-23T17:52:14.332Z,99224.63
2022-11-23T17:54:42.046Z,99226.44
2022-11-23T17:57:15.352Z,99237.03
2022-11-23T17:59:46.012Z,99241.34
2022-11-23T18:02:13.702Z,99237.22
2022-11-23T18:04:41.513Z,99230.38
2022-11-23T18:07:13.732Z,99244.94
2022-11-23T18:09:41.681Z,99237.13
2022-11-23T18:12:10.420Z,99238.31
2022-11-23T18:14:39.551Z,99247.59
2022-11-23T18:17:07.374Z,99246.59
2022-11-23T18:19:35.482Z,99244.75
2022-11-23T18:22:03.349Z,99247.56
2022-11-23T18:24:31.072Z,99259.53
2022-11-23T18:26:58.785Z,99261.47
2022-11-23T18:29:26.483Z,99268.28
2022-11-23T18:31:55.532Z,99272.97
2022-11-23T18:34:23.234Z,99275.06
2022-11-23T18:36:50.919Z,99283.53
2022-11-23T18:39:18.643Z,99282.53
2022-11-23T18:41:47.197Z,99282.19
2022-11-23T18:44:14.882Z,99292.31
2022-11-23T18:46:44.915Z,99299.13
2022-11-23T18:49:14.108Z,99296.97
2022-11-23T18:51:41.769Z,99302.91
2022-11-23T18:54:09.457Z,99302.91
2022-11-23T18:56:37.093Z,99309.81
2022-11-23T18:59:04.950Z,99311.47
2022-11-23T19:01:32.696Z,99311.50
2022-11-23T19:04:01.244Z,99330.03
2022-11-23T19:06:30.294Z,99328.22
2022-11-23T19:08:57.992Z,99333.50
2022-11-23T19:11:28.577Z,99336.81
2022-11-23T19:13:58.198Z,99340.81
2022-11-23T19:16:31.316Z,99347.94
2022-11-23T19:19:01.063Z,99348.25
2022-11-23T19:21:31.408Z,99354.06
2022-11-23T19:24:00.376Z,99363.47
2022-11-23T19:26:30.057Z,99366.47
2022-11-23T19:28:58.199Z,99367.09
2022-11-23T19:31:27.517Z,99376.06
2022-11-23T19:33:58.397Z,99377.72
2022-11-23T19:36:26.537Z,99397.63
2022-11-23T19:38:58.103Z,99396.00
2022-11-23T19:41:30.120Z,99396.31
2022-11-23T19:43:59.733Z,99410.91
2022-11-23T19:46:29.070Z,99414.22
2022-11-23T19:48:58.108Z,99428.81
2022-11-23T19:51:26.705Z,99428.28
2022-11-23T19:53:57.647Z,99444.03
2022-11-23T19:56:28.785Z,99440.19
2022-11-23T19:58:58.569Z,99448.94
2022-11-23T20:01:28.039Z,99440.34
2022-11-23T20:04:04.001Z,99458.41
2022-11-23T20:06:37.089Z,99469.19
2022-11-23T20:09:07.766Z,99477.59
2022-11-23T20:11:36.785Z,99482.72
2022-11-23T20:14:04.695Z,99483.25
2022-11-23T20:16:33.501Z,99483.41
2022-11-23T20:19:04.673Z,99491.34
2022-11-23T20:21:34.775Z,99495.81
2022-11-23T20:24:05.476Z,99506.41
2022-11-23T20:26:36.322Z,99505.59
2022-11-23T20:29:06.470Z,99504.25
2022-11-23T20:31:35.223Z,99515.81
2022-11-23T20:34:07.532Z,99520.63
2022-11-23T20:36:38.413Z,99515.81
2022-11-23T20:39:08.701Z,99521.47
2022-11-23T20:41:38.640Z,99530.91
2022-11-23T20:44:08.215Z,99529.72
2022-11-23T20:47:00.722Z,99534.88
2022-11-23T20:49:23.492Z,99537.66
2022-11-23T20:51:51.151Z,99555.38
2022-11-23T20:54:19.023Z,99553.06
2022-11-23T20:56:48.106Z,99563.66
2022-11-23T20:59:15.823Z,99564.81
2022-11-23T21:01:43.495Z,99568.78
2022-11-23T21:04:11.319Z,99577.38
2022-11-23T21:06:40.182Z,99576.38
2022-11-23T21:09:08.974Z,99584.34
2022-11-23T21:11:54.510Z,99587.16
2022-11-23T21:14:27.653Z,99595.59
2022-11-23T21:16:58.214Z,99584.50
2022-11-23T21:19:27.336Z,99589.94
2022-11-23T21:21:55.454Z,99594.94
2022-11-23T21:24:23.202Z,99585.16
2022-11-23T21:26:50.871Z,99586.66
2022-11-23T21:29:19.617Z,99589.16
2022-11-23T21:31:50.107Z,99593.63
2022-11-23T21:34:20.040Z,99607.69
2022-11-23T21:36:48.506Z,99618.94
2022-11-23T21:39:17.024Z,99618.75
2022-11-23T21:41:45.131Z,99634.34
2022-11-23T21:44:13.402Z,99640.31
2022-11-23T21:46:42.146Z,99648.25
2022-11-23T21:49:11.612Z,99657.84
2022-11-23T21:51:39.871Z,99657.84
2022-11-23T21:54:10.213Z,99660.50
2022-11-23T21:56:37.942Z,99658.19
2022-11-23T21:59:06.062Z,99660.81
2022-11-23T22:01:36.236Z,99668.25
2022-11-23T22:04:08.577Z,99669.44
2022-11-23T22:06:37.639Z,99664.78
2022-11-23T22:09:07.246Z,99669.44
2022-11-23T22:11:36.990Z,99662.31
2022-11-23T22:14:07.228Z,99675.72
2022-11-23T22:16:36.726Z,99666.78
2022-11-23T22:19:05.779Z,99670.06
2022-11-23T22:21:36.331Z,99667.09
2022-11-23T22:24:06.630Z,99674.19
2022-11-23T22:26:34.573Z,99679.34
2022-11-23T22:29:06.158Z,99672.53
2022-11-23T22:31:34.785Z,99682.31
2022-11-23T22:34:03.474Z,99688.94
2022-11-23T22:36:31.384Z,99682.00
2022-11-23T22:39:02.684Z,99693.56
2022-11-23T22:41:34.454Z,99705.47
2022-11-23T22:44:02.061Z,99717.38
2022-11-23T22:46:29.941Z,99713.38
2022-11-23T22:48:59.302Z,99723.28
2022-11-23T22:51:29.611Z,99736.22
2022-11-23T22:53:58.411Z,99741.81
2022-11-23T22:56:26.995Z,99739.50
2022-11-23T22:58:56.068Z,99731.91
2022-11-23T23:01:26.393Z,99748.16
2022-11-23T23:03:55.373Z,99746.19
2022-11-23T23:06:24.854Z,99753.78
2022-11-23T23:08:55.962Z,99754.94
2022-11-23T23:11:25.039Z,99759.38
2022-11-23T23:13:52.984Z,99757.75
2022-11-23T23:16:22.467Z,99759.25
2022-11-23T23:18:50.543Z,99759.09
2022-11-23T23:21:19.914Z,99763.69
2022-11-23T23:23:49.344Z,99764.38
2022-11-23T23:26:18.975Z,99762.69
2022-11-23T23:28:47.003Z,99770.63
2022-11-23T23:31:17.233Z,99771.00
2022-11-23T23:33:46.777Z,99771.50
2022-11-23T23:36:16.543Z,99774.66
2022-11-23T23:38:44.449Z,99776.09
2022-11-23T23:41:13.812Z,99789.19
2022-11-23T23:43:42.189Z,99785.56
2022-11-23T23:46:11.814Z,99781.78
2022-11-23T23:48:40.969Z,99786.09
2022-11-23T23:51:11.634Z,99793.53
2022-11-23T23:53:39.839Z,99795.19
2022-11-23T23:56:09.457Z,99795.72
2022-11-23T23:58:37.305Z,99796.22
